createdAt,value
2022-07-27T00:01:17.635Z,42.36
2022-07-27T00:06:19.619Z,42.58
2022-07-27T00:11:21.628Z,42.57
2022-07-27T00:16:23.685Z,43.73
2022-07-27T00:21:26.849Z,44.15
2022-07-27T00:26:28.811Z,43.89
2022-07-27T00:31:30.966Z,44.26
2022-07-27T00:36:32.955Z,45.24
2022-07-27T00:41:34.880Z,45.92
2022-07-27T00:46:37.091Z,46.07
2022-07-27T00:51:39.121Z,46.74
2022-07-27T00:56:41.856Z,47.52
2022-07-27T01:01:43.982Z,48.48
2022-07-27T01:06:46.050Z,49.17
2022-07-27T01:11:48.694Z,49.90
2022-07-27T01:16:52.002Z,50.10
2022-07-27T01:21:53.875Z,49.63
2022-07-27T01:26:56.266Z,49.87
2022-07-27T01:31:58.812Z,50.12
2022-07-27T01:37:05.205Z,50.05
2022-07-27T01:42:07.301Z,49.88
2022-07-27T01:47:14.176Z,49.50
2022-07-27T01:52:16.684Z,49.43
2022-07-27T01:57:18.606Z,49.84
2022-07-27T02:02:20.583Z,50.12
2022-07-27T02:07:22.534Z,49.95
2022-07-27T02:12:36.734Z,49.60
2022-07-27T02:17:40.330Z,49.01
2022-07-27T02:22:44.709Z,48.71
2022-07-27T02:27:47.585Z,49.02
2022-07-27T02:32:49.521Z,49.00
2022-07-27T02:37:51.482Z,49.47
2022-07-27T02:42:53.497Z,50.11
2022-07-27T02:47:55.675Z,50.25
2022-07-27T02:52:57.557Z,50.07
2022-07-27T02:57:59.445Z,49.96
2022-07-27T03:03:01.421Z,49.76
2022-07-27T03:08:04.223Z,49.85
2022-07-27T03:13:06.293Z,49.74
2022-07-27T03:18:08.181Z,49.49
2022-07-27T03:23:10.090Z,49.43
2022-07-27T03:28:12.061Z,49.03
2022-07-27T03:33:14.010Z,48.76
2022-07-27T03:38:16.106Z,48.53
2022-07-27T03:43:19.440Z,48.23
2022-07-27T03:48:21.595Z,47.90
2022-07-27T03:53:23.549Z,47.80
2022-07-27T03:58:25.714Z,47.56
2022-07-27T04:03:27.606Z,47.12
2022-07-27T04:08:29.589Z,46.85
2022-07-27T04:13:31.486Z,46.68
2022-07-27T04:18:33.498Z,46.28
2022-07-27T04:23:38.352Z,45.91
2022-07-27T04:28:40.480Z,45.53
2022-07-27T04:33:42.442Z,45.29
2022-07-27T04:38:44.492Z,44.83
2022-07-27T04:43:46.431Z,44.83
2022-07-27T04:48:49.099Z,44.42
2022-07-27T04:53:52.783Z,44.38
2022-07-27T04:59:00.537Z,44.76
2022-07-27T05:04:04.220Z,44.44
2022-07-27T05:09:06.245Z,44.33
2022-07-27T05:14:08.448Z,43.99
2022-07-27T05:19:10.535Z,43.89
2022-07-27T05:24:12.611Z,43.92
2022-07-27T05:29:15.080Z,43.73
2022-07-27T05:34:17.316Z,43.56
2022-07-27T05:39:19.446Z,43.54
2022-07-27T05:44:21.470Z,43.85
2022-07-27T05:49:23.799Z,43.74
2022-07-27T05:54:25.783Z,43.26
2022-07-27T05:59:28.269Z,42.98
2022-07-27T06:04:30.218Z,42.79
2022-07-27T06:09:32.126Z,42.38
2022-07-27T06:14:34.082Z,42.26
2022-07-27T06:19:39.656Z,42.39
2022-07-27T06:24:41.614Z,42.08
2022-07-27T06:29:43.657Z,42.21
2022-07-27T06:34:45.638Z,42.22
2022-07-27T06:39:49.141Z,42.32
2022-07-27T06:44:51.140Z,42.03
2022-07-27T06:49:53.420Z,41.96
2022-07-27T06:54:55.320Z,41.16
2022-07-27T06:59:57.295Z,40.81
2022-07-27T07:04:59.314Z,40.39
2022-07-27T07:10:01.192Z,39.96
2022-07-27T07:15:03.581Z,39.81
2022-07-27T07:20:07.133Z,39.69
2022-07-27T07:25:09.449Z,39.36
2022-07-27T07:30:12.148Z,39.26
2022-07-27T07:35:14.783Z,38.95
2022-07-27T07:40:46.902Z,39.06
2022-07-27T07:45:50.544Z,39.22
2022-07-27T07:50:54.218Z,38.91
2022-07-27T07:56:00.113Z,39.30
2022-07-27T08:01:02.004Z,39.33
2022-07-27T08:06:04.306Z,39.15
2022-07-27T08:11:06.152Z,39.03
2022-07-27T08:16:08.183Z,38.79
2022-07-27T08:21:10.121Z,38.85
2022-07-27T08:26:11.948Z,38.77
2022-07-27T08:31:18.889Z,38.69
2022-07-27T08:36:26.214Z,38.43
2022-07-27T08:41:30.350Z,38.63
2022-07-27T08:46:33.098Z,38.48
2022-07-27T08:51:35.283Z,38.26
2022-07-27T08:56:37.590Z,38.05
2022-07-27T09:01:41.074Z,37.75
2022-07-27T09:06:52.857Z,37.60
2022-07-27T09:12:09.879Z,37.47
2022-07-27T09:22:52.710Z,37.03
2022-07-27T09:27:56.860Z,36.37
2022-07-27T09:33:00.186Z,36.41
2022-07-27T09:38:24.879Z,36.24
2022-07-27T09:44:27.549Z,36.21
2022-07-27T09:48:49.087Z,35.94
2022-07-27T09:53:52.729Z,35.83
2022-07-27T09:58:56.935Z,35.69
2022-07-27T10:04:04.507Z,35.68
2022-07-27T10:14:08.056Z,35.38
2022-07-27T10:19:18.187Z,35.17
2022-07-27T10:24:33.846Z,34.97
2022-07-27T10:29:38.762Z,34.79
2022-07-27T10:34:42.623Z,34.36
2022-07-27T10:39:49.995Z,34.72
2022-07-27T10:45:01.942Z,34.63
2022-07-27T10:50:15.500Z,34.42
2022-07-27T10:55:40.115Z,34.39
2022-07-27T11:00:55.115Z,34.22
2022-07-27T11:06:31.387Z,33.95
2022-07-27T11:11:30.264Z,34.04
2022-07-27T11:16:32.320Z,33.93
2022-07-27T11:21:38.820Z,33.67
2022-07-27T11:26:44.151Z,33.62
2022-07-27T11:31:57.559Z,33.58
2022-07-27T11:37:05.607Z,33.56
2022-07-27T11:42:11.926Z,33.00
2022-07-27T11:47:19.527Z,33.37
2022-07-27T11:52:21.478Z,33.10
2022-07-27T11:57:32.123Z,33.01
2022-07-27T12:02:34.131Z,32.58
2022-07-27T12:07:37.053Z,32.33
2022-07-27T12:12:48.513Z,32.03
2022-07-27T12:17:59.685Z,31.40
2022-07-27T12:23:07.221Z,31.51
2022-07-27T12:28:15.244Z,31.47
2022-07-27T12:33:30.274Z,30.50
2022-07-27T12:38:48.690Z,30.75
2022-07-27T12:44:13.676Z,30.62
2022-07-27T12:49:16.279Z,29.80
2022-07-27T12:54:18.553Z,30.00
2022-07-27T12:59:22.093Z,29.81
2022-07-27T13:04:24.250Z,29.77
2022-07-27T13:09:26.124Z,29.40
2022-07-27T13:14:48.470Z,29.26
2022-07-27T13:19:50.760Z,29.30
2022-07-27T13:24:52.681Z,28.87
2022-07-27T13:29:56.036Z,28.59
2022-07-27T13:34:57.929Z,28.64
2022-07-27T13:40:01.095Z,28.72
2022-07-27T13:45:11.293Z,28.53
2022-07-27T13:50:19.473Z,28.43
2022-07-27T13:55:27.772Z,28.02
2022-07-27T14:00:30.157Z,28.20
2022-07-27T14:05:32.153Z,28.23
2022-07-27T14:10:44.473Z,28.32
2022-07-27T14:15:53.306Z,28.63
2022-07-27T14:20:58.959Z,28.58
2022-07-27T14:26:06.565Z,28.75
2022-07-27T14:31:09.927Z,28.64
2022-07-27T14:36:11.801Z,28.44
2022-07-27T14:41:13.741Z,28.41
2022-07-27T14:46:15.727Z,28.56
2022-07-27T14:51:17.794Z,28.30
2022-07-27T14:56:19.645Z,28.14
2022-07-27T15:01:21.861Z,27.82
2022-07-27T15:06:24.102Z,27.80
2022-07-27T15:11:27.578Z,27.93
2022-07-27T15:16:31.184Z,27.97
2022-07-27T15:21:33.056Z,28.37
2022-07-27T15:26:35.696Z,28.17
2022-07-27T15:31:37.628Z,28.15
2022-07-27T15:36:44.902Z,28.00
2022-07-27T15:41:47.876Z,27.76
2022-07-27T15:46:49.730Z,28.25
2022-07-27T15:51:52.636Z,27.80
2022-07-27T15:56:54.596Z,27.83
2022-07-27T16:01:56.497Z,27.80
2022-07-27T16:06:59.874Z,27.82
2022-07-27T16:12:01.693Z,27.98
2022-07-27T16:17:03.556Z,28.02
2022-07-27T16:22:05.448Z,27.95
2022-07-27T16:27:07.851Z,28.26
2022-07-27T16:32:09.735Z,27.84
2022-07-27T16:37:11.634Z,27.71
2022-07-27T16:42:13.535Z,27.79
2022-07-27T16:47:15.402Z,27.46
2022-07-27T16:52:17.232Z,27.49
2022-07-27T16:57:19.120Z,27.53
2022-07-27T17:02:21.461Z,26.95
2022-07-27T17:07:23.582Z,26.79
2022-07-27T17:12:25.435Z,26.89
2022-07-27T17:17:28.161Z,26.67
2022-07-27T17:22:30.040Z,26.64
2022-07-27T17:27:31.894Z,26.51
2022-07-27T17:32:34.116Z,26.69
2022-07-27T17:38:03.495Z,26.40
2022-07-27T17:42:57.976Z,26.47
2022-07-27T17:47:59.824Z,26.66
2022-07-27T17:53:01.812Z,26.63
2022-07-27T17:58:03.981Z,26.39
2022-07-27T18:03:05.871Z,26.48
2022-07-27T18:08:12.069Z,26.54
2022-07-27T18:13:14.077Z,26.38
2022-07-27T18:18:27.549Z,26.58
2022-07-27T18:23:30.877Z,26.45
2022-07-27T18:28:39.197Z,26.59
2022-07-27T18:33:45.941Z,26.42
2022-07-27T18:38:49.736Z,26.47
2022-07-27T18:43:56.037Z,26.63
2022-07-27T18:48:58.488Z,26.54
2022-07-27T18:54:00.537Z,26.57
2022-07-27T18:59:02.492Z,26.66
2022-07-27T19:04:05.234Z,26.70
2022-07-27T19:09:07.419Z,26.67
2022-07-27T19:14:09.253Z,27.05
2022-07-27T19:19:15.750Z,27.37
2022-07-27T19:24:19.936Z,27.38
2022-07-27T19:29:22.891Z,27.43
2022-07-27T19:34:24.903Z,27.68
2022-07-27T19:39:26.815Z,27.78
2022-07-27T19:44:29.145Z,27.89
2022-07-27T19:49:31.745Z,27.99
2022-07-27T20:00:01.108Z,28.41
2022-07-27T20:05:03.252Z,28.74
2022-07-27T20:10:06.197Z,28.70
2022-07-27T20:15:08.551Z,29.00
2022-07-27T20:20:11.271Z,29.07
2022-07-27T20:25:15.000Z,29.26
2022-07-27T20:30:18.771Z,29.33
2022-07-27T20:35:20.719Z,29.27
2022-07-27T20:40:27.149Z,29.39
2022-07-27T20:45:29.232Z,29.60
2022-07-27T20:50:31.116Z,29.58
2022-07-27T20:55:32.996Z,29.62
2022-07-27T21:00:35.120Z,29.74
2022-07-27T21:05:36.990Z,30.12
2022-07-27T21:10:38.953Z,30.42
2022-07-27T21:15:40.853Z,30.28
2022-07-27T21:20:42.768Z,30.37
2022-07-27T21:25:44.617Z,30.31
2022-07-27T21:30:46.467Z,30.56
2022-07-27T21:35:48.340Z,30.68
2022-07-27T21:40:50.195Z,30.95
2022-07-27T21:45:52.204Z,31.10
2022-07-27T21:50:54.115Z,31.24
2022-07-27T21:55:56.010Z,31.37
2022-07-27T22:00:57.987Z,31.63
2022-07-27T22:05:59.874Z,31.72
2022-07-27T22:11:02.630Z,32.28
2022-07-27T22:16:05.190Z,32.40
2022-07-27T22:21:07.176Z,32.52
2022-07-27T22:26:09.759Z,32.95
2022-07-27T22:31:21.331Z,33.23
2022-07-27T22:36:25.043Z,33.43
2022-07-27T22:41:26.921Z,33.66
2022-07-27T22:46:32.500Z,33.51
2022-07-27T22:51:49.490Z,33.78
2022-07-27T22:56:54.648Z,34.24
2022-07-27T23:01:56.857Z,34.59
2022-07-27T23:06:59.345Z,34.75
2022-07-27T23:12:01.217Z,34.57
2022-07-27T23:17:03.074Z,34.20
2022-07-27T23:22:05.018Z,34.41
2022-07-27T23:27:12.692Z,34.71
2022-07-27T23:32:14.514Z,34.73
2022-07-27T23:37:16.436Z,34.67
2022-07-27T23:42:18.282Z,34.45
2022-07-27T23:47:20.160Z,34.36
2022-07-27T23:52:22.010Z,34.25
2022-07-27T23:57:23.907Z,34.96
